<?xml version="1.0" encoding="UTF-8" standalone="no" ?>
<gpx xmlns="http://www.topografix.com/GPX/1/1" xmlns:xsi="http://www.w3.org/2001/XMLSchema-instance" xsi:schemaLocation="http://www.topografix.com/GPX/1/1 http://www.topografix.com/GPX/1/1/gpx.xsd" version="1.1" creator="VisuGPX - https://www.visugpx.com">
  <metadata>
    <name>20210221</name>
  </metadata>
  <trk>
    <name><![CDATA[20210221_1]]></name>
    <trkseg>
      <trkpt lat="49.59431" lon="5.53365">
        <ele>302.29742431641</ele>
        <time>2021-01-08T21:08:29.510Z</time>
      </trkpt>
      <trkpt lat="49.59419" lon="5.53366">
        <ele>300.93902587891</ele>
        <time>2021-01-08T21:08:32.268Z</time>
      </trkpt>
      <trkpt lat="49.59419" lon="5.53366">
        <ele>300.93814086914</ele>
        <time>2021-01-08T21:08:35.026Z</time>
      </trkpt>
      <trkpt lat="49.59431" lon="5.53365">
        <ele>302.29742431641</ele>
        <time>2021-01-08T21:08:37.786Z</time>
      </trkpt>
      <trkpt lat="49.59453" lon="5.53365">
        <ele>304.73654174805</ele>
        <time>2021-01-08T21:08:40.551Z</time>
      </trkpt>
      <trkpt lat="49.5957" lon="5.53438">
        <ele>316.41357421875</ele>
        <time>2021-01-08T21:08:43.341Z</time>
      </trkpt>
      <trkpt lat="49.59603" lon="5.53457">
        <ele>315.98406982422</ele>
        <time>2021-01-08T21:08:46.138Z</time>
      </trkpt>
      <trkpt lat="49.59688" lon="5.53494">
        <ele>316.24319458008</ele>
        <time>2021-01-08T21:08:48.953Z</time>
      </trkpt>
      <trkpt lat="49.59771" lon="5.53503">
        <ele>319</ele>
        <time>2021-01-08T21:08:51.784Z</time>
      </trkpt>
      <trkpt lat="49.59787" lon="5.53493">
        <ele>318.46618652344</ele>
        <time>2021-01-08T21:08:54.619Z</time>
      </trkpt>
      <trkpt lat="49.5979" lon="5.53462">
        <ele>317.26947021484</ele>
        <time>2021-01-08T21:08:57.458Z</time>
      </trkpt>
      <trkpt lat="49.59791" lon="5.53451">
        <ele>316.84442138672</ele>
        <time>2021-01-08T21:09:00.298Z</time>
      </trkpt>
      <trkpt lat="49.59791" lon="5.53451">
        <ele>316.8447265625</ele>
        <time>2021-01-08T21:09:03.138Z</time>
      </trkpt>
      <trkpt lat="49.59746" lon="5.53428">
        <ele>312.21722412109</ele>
        <time>2021-01-08T21:09:05.988Z</time>
      </trkpt>
      <trkpt lat="49.59747" lon="5.5342">
        <ele>311.75384521484</ele>
        <time>2021-01-08T21:09:08.839Z</time>
      </trkpt>
      <trkpt lat="49.59772" lon="5.53362">
        <ele>311.49145507812</ele>
        <time>2021-01-08T21:09:11.699Z</time>
      </trkpt>
      <trkpt lat="49.59772" lon="5.53362">
        <ele>311.49114990234</ele>
        <time>2021-01-08T21:09:14.559Z</time>
      </trkpt>
      <trkpt lat="49.5978" lon="5.53344">
        <ele>311.6091003418</ele>
        <time>2021-01-08T21:09:17.422Z</time>
      </trkpt>
      <trkpt lat="49.59781" lon="5.53314">
        <ele>310.32992553711</ele>
        <time>2021-01-08T21:09:20.289Z</time>
      </trkpt>
      <trkpt lat="49.5978" lon="5.53208">
        <ele>302.83850097656</ele>
        <time>2021-01-08T21:09:23.170Z</time>
      </trkpt>
      <trkpt lat="49.59786" lon="5.53147">
        <ele>299.70544433594</ele>
        <time>2021-01-08T21:09:26.059Z</time>
      </trkpt>
      <trkpt lat="49.59738" lon="5.53011">
        <ele>289.62240600586</ele>
        <time>2021-01-08T21:09:28.968Z</time>
      </trkpt>
      <trkpt lat="49.5975" lon="5.52927">
        <ele>290.39895629883</ele>
        <time>2021-01-08T21:09:31.888Z</time>
      </trkpt>
      <trkpt lat="49.59757" lon="5.52761">
        <ele>278.3840637207</ele>
        <time>2021-01-08T21:09:34.830Z</time>
      </trkpt>
      <trkpt lat="49.59764" lon="5.5275">
        <ele>278</ele>
        <time>2021-01-08T21:09:37.774Z</time>
      </trkpt>
      <trkpt lat="49.5983" lon="5.52719">
        <ele>279.16046142578</ele>
        <time>2021-01-08T21:09:40.732Z</time>
      </trkpt>
      <trkpt lat="49.6002" lon="5.52664">
        <ele>276.52154541016</ele>
        <time>2021-01-08T21:09:43.728Z</time>
      </trkpt>
      <trkpt lat="49.60155" lon="5.52724">
        <ele>288.99200439453</ele>
        <time>2021-01-08T21:09:46.752Z</time>
      </trkpt>
      <trkpt lat="49.60196" lon="5.52633">
        <ele>298.42559814453</ele>
        <time>2021-01-08T21:09:49.791Z</time>
      </trkpt>
      <trkpt lat="49.6022" lon="5.5256">
        <ele>307.25173950195</ele>
        <time>2021-01-08T21:09:52.840Z</time>
      </trkpt>
      <trkpt lat="49.60272" lon="5.52397">
        <ele>322.44921875</ele>
        <time>2021-01-08T21:09:55.913Z</time>
      </trkpt>
      <trkpt lat="49.60314" lon="5.52318">
        <ele>327.21075439453</ele>
        <time>2021-01-08T21:09:58.999Z</time>
      </trkpt>
      <trkpt lat="49.60325" lon="5.52282">
        <ele>326.1240234375</ele>
        <time>2021-01-08T21:10:02.090Z</time>
      </trkpt>
      <trkpt lat="49.60363" lon="5.52238">
        <ele>327.35577392578</ele>
        <time>2021-01-08T21:10:05.191Z</time>
      </trkpt>
      <trkpt lat="49.6039" lon="5.5222">
        <ele>329.90454101562</ele>
        <time>2021-01-08T21:10:08.298Z</time>
      </trkpt>
      <trkpt lat="49.60505" lon="5.52194">
        <ele>332.91549682617</ele>
        <time>2021-01-08T21:10:11.428Z</time>
      </trkpt>
      <trkpt lat="49.60557" lon="5.52201">
        <ele>335.1032409668</ele>
        <time>2021-01-08T21:10:14.569Z</time>
      </trkpt>
      <trkpt lat="49.60708" lon="5.5221">
        <ele>344.30044555664</ele>
        <time>2021-01-08T21:10:17.740Z</time>
      </trkpt>
      <trkpt lat="49.60715" lon="5.52212">
        <ele>344.88687133789</ele>
        <time>2021-01-08T21:10:20.912Z</time>
      </trkpt>
      <trkpt lat="49.60715" lon="5.52212">
        <ele>344.88626098633</ele>
        <time>2021-01-08T21:10:24.084Z</time>
      </trkpt>
      <trkpt lat="49.60772" lon="5.52228">
        <ele>347.69882202148</ele>
        <time>2021-01-08T21:10:27.268Z</time>
      </trkpt>
      <trkpt lat="49.6085" lon="5.52244">
        <ele>351.95794677734</ele>
        <time>2021-01-08T21:10:30.468Z</time>
      </trkpt>
      <trkpt lat="49.60912" lon="5.52227">
        <ele>355.28231811523</ele>
        <time>2021-01-08T21:10:33.680Z</time>
      </trkpt>
      <trkpt lat="49.60912" lon="5.52227">
        <ele>355.28170776367</ele>
        <time>2021-01-08T21:10:36.892Z</time>
      </trkpt>
      <trkpt lat="49.60937" lon="5.5223">
        <ele>356</ele>
        <time>2021-01-08T21:10:40.109Z</time>
      </trkpt>
      <trkpt lat="49.60981" lon="5.52217">
        <ele>355.42770385742</ele>
        <time>2021-01-08T21:10:43.335Z</time>
      </trkpt>
      <trkpt lat="49.60975" lon="5.52198">
        <ele>355.11880493164</ele>
        <time>2021-01-08T21:10:46.564Z</time>
      </trkpt>
      <trkpt lat="49.60969" lon="5.5218">
        <ele>355.77947998047</ele>
        <time>2021-01-08T21:10:49.796Z</time>
      </trkpt>
      <trkpt lat="49.60977" lon="5.52165">
        <ele>355.85275268555</ele>
        <time>2021-01-08T21:10:53.030Z</time>
      </trkpt>
      <trkpt lat="49.60993" lon="5.51962">
        <ele>355.38269042969</ele>
        <time>2021-01-08T21:10:56.291Z</time>
      </trkpt>
      <trkpt lat="49.61086" lon="5.51737">
        <ele>343.07315063477</ele>
        <time>2021-01-08T21:10:59.586Z</time>
      </trkpt>
      <trkpt lat="49.61132" lon="5.51625">
        <ele>339.39456176758</ele>
        <time>2021-01-08T21:11:02.899Z</time>
      </trkpt>
      <trkpt lat="49.61147" lon="5.51449">
        <ele>337.66952514648</ele>
        <time>2021-01-08T21:11:06.235Z</time>
      </trkpt>
      <trkpt lat="49.61152" lon="5.51323">
        <ele>331.47271728516</ele>
        <time>2021-01-08T21:11:09.587Z</time>
      </trkpt>
      <trkpt lat="49.61146" lon="5.513">
        <ele>330.7282409668</ele>
        <time>2021-01-08T21:11:12.942Z</time>
      </trkpt>
      <trkpt lat="49.61058" lon="5.50928">
        <ele>335.21331787109</ele>
        <time>2021-01-08T21:11:16.349Z</time>
      </trkpt>
      <trkpt lat="49.60966" lon="5.50791">
        <ele>329.25039672852</ele>
        <time>2021-01-08T21:11:19.782Z</time>
      </trkpt>
      <trkpt lat="49.60918" lon="5.50708">
        <ele>339.14291381836</ele>
        <time>2021-01-08T21:11:23.229Z</time>
      </trkpt>
      <trkpt lat="49.60888" lon="5.50645">
        <ele>341.86874389648</ele>
        <time>2021-01-08T21:11:26.686Z</time>
      </trkpt>
      <trkpt lat="49.60858" lon="5.50536">
        <ele>341.21243286133</ele>
        <time>2021-01-08T21:11:30.158Z</time>
      </trkpt>
      <trkpt lat="49.60858" lon="5.50536">
        <ele>341.21212768555</ele>
        <time>2021-01-08T21:11:33.630Z</time>
      </trkpt>
      <trkpt lat="49.60946" lon="5.50492">
        <ele>334.42105102539</ele>
        <time>2021-01-08T21:11:37.121Z</time>
      </trkpt>
      <trkpt lat="49.60938" lon="5.50436">
        <ele>335.97103881836</ele>
        <time>2021-01-08T21:11:40.619Z</time>
      </trkpt>
      <trkpt lat="49.60938" lon="5.50436">
        <ele>335.97103881836</ele>
        <time>2021-01-08T21:11:44.117Z</time>
      </trkpt>
      <trkpt lat="49.60931" lon="5.50383">
        <ele>334.51007080078</ele>
        <time>2021-01-08T21:11:47.623Z</time>
      </trkpt>
      <trkpt lat="49.60919" lon="5.50205">
        <ele>312.71524047852</ele>
        <time>2021-01-08T21:11:51.152Z</time>
      </trkpt>
      <trkpt lat="49.60925" lon="5.50179">
        <ele>309.39349365234</ele>
        <time>2021-01-08T21:11:54.684Z</time>
      </trkpt>
      <trkpt lat="49.60952" lon="5.50134">
        <ele>305.2825012207</ele>
        <time>2021-01-08T21:11:58.224Z</time>
      </trkpt>
      <trkpt lat="49.60959" lon="5.50107">
        <ele>301.9831237793</ele>
        <time>2021-01-08T21:12:01.768Z</time>
      </trkpt>
      <trkpt lat="49.60956" lon="5.50091">
        <ele>300.12969970703</ele>
        <time>2021-01-08T21:12:05.314Z</time>
      </trkpt>
      <trkpt lat="49.60956" lon="5.50091">
        <ele>300.12997436523</ele>
        <time>2021-01-08T21:12:08.860Z</time>
      </trkpt>
      <trkpt lat="49.60942" lon="5.50034">
        <ele>294.05801391602</ele>
        <time>2021-01-08T21:12:12.414Z</time>
      </trkpt>
      <trkpt lat="49.60874" lon="5.49903">
        <ele>286.20065307617</ele>
        <time>2021-01-08T21:12:15.990Z</time>
      </trkpt>
      <trkpt lat="49.60848" lon="5.49797">
        <ele>282.00872802734</ele>
        <time>2021-01-08T21:12:19.581Z</time>
      </trkpt>
      <trkpt lat="49.6081" lon="5.49645">
        <ele>272.46450805664</ele>
        <time>2021-01-08T21:12:23.193Z</time>
      </trkpt>
      <trkpt lat="49.60793" lon="5.49581">
        <ele>270.79986572266</ele>
        <time>2021-01-08T21:12:26.814Z</time>
      </trkpt>
      <trkpt lat="49.60776" lon="5.49482">
        <ele>262.21725463867</ele>
        <time>2021-01-08T21:12:30.448Z</time>
      </trkpt>
      <trkpt lat="49.60776" lon="5.49482">
        <ele>262.21694946289</ele>
        <time>2021-01-08T21:12:34.082Z</time>
      </trkpt>
      <trkpt lat="49.60766" lon="5.49361">
        <ele>258.08551025391</ele>
        <time>2021-01-08T21:12:37.732Z</time>
      </trkpt>
      <trkpt lat="49.60777" lon="5.49228">
        <ele>254.63609313965</ele>
        <time>2021-01-08T21:12:41.400Z</time>
      </trkpt>
      <trkpt lat="49.6077" lon="5.49173">
        <ele>250.83557128906</ele>
        <time>2021-01-08T21:12:45.075Z</time>
      </trkpt>
      <trkpt lat="49.6075" lon="5.49101">
        <ele>250.0588684082</ele>
        <time>2021-01-08T21:12:48.760Z</time>
      </trkpt>
      <trkpt lat="49.60751" lon="5.49075">
        <ele>247.86141967773</ele>
        <time>2021-01-08T21:12:52.448Z</time>
      </trkpt>
      <trkpt lat="49.60773" lon="5.49028">
        <ele>242.86006164551</ele>
        <time>2021-01-08T21:12:56.144Z</time>
      </trkpt>
      <trkpt lat="49.60773" lon="5.49028">
        <ele>242.85916137695</ele>
        <time>2021-01-08T21:12:59.840Z</time>
      </trkpt>
      <trkpt lat="49.60773" lon="5.49027">
        <ele>242.732421875</ele>
        <time>2021-01-08T21:13:03.536Z</time>
      </trkpt>
      <trkpt lat="49.60781" lon="5.48997">
        <ele>243.24078369141</ele>
        <time>2021-01-08T21:13:07.236Z</time>
      </trkpt>
      <trkpt lat="49.60782" lon="5.48956">
        <ele>246.91500854492</ele>
        <time>2021-01-08T21:13:10.942Z</time>
      </trkpt>
      <trkpt lat="49.60782" lon="5.48956">
        <ele>246.91380310059</ele>
        <time>2021-01-08T21:13:14.648Z</time>
      </trkpt>
      <trkpt lat="49.60765" lon="5.48912">
        <ele>248.30087280273</ele>
        <time>2021-01-08T21:13:18.360Z</time>
      </trkpt>
      <trkpt lat="49.60728" lon="5.48756">
        <ele>246.21131896973</ele>
        <time>2021-01-08T21:13:22.094Z</time>
      </trkpt>
      <trkpt lat="49.60704" lon="5.48653">
        <ele>243.59317016602</ele>
        <time>2021-01-08T21:13:25.842Z</time>
      </trkpt>
      <trkpt lat="49.60704" lon="5.48653">
        <ele>243.59104919434</ele>
        <time>2021-01-08T21:13:29.590Z</time>
      </trkpt>
      <trkpt lat="49.60661" lon="5.48482">
        <ele>240.09661865234</ele>
        <time>2021-01-08T21:13:33.362Z</time>
      </trkpt>
      <trkpt lat="49.60637" lon="5.48437">
        <ele>234.30274963379</ele>
        <time>2021-01-08T21:13:37.142Z</time>
      </trkpt>
      <trkpt lat="49.60681" lon="5.48467">
        <ele>244.1321105957</ele>
        <time>2021-01-08T21:13:40.931Z</time>
      </trkpt>
      <trkpt lat="49.60773" lon="5.48455">
        <ele>259.85919189453</ele>
        <time>2021-01-08T21:13:44.739Z</time>
      </trkpt>
      <trkpt lat="49.6079" lon="5.48461">
        <ele>263.13385009766</ele>
        <time>2021-01-08T21:13:48.550Z</time>
      </trkpt>
      <trkpt lat="49.6085" lon="5.48522">
        <ele>272.3024597168</ele>
        <time>2021-01-08T21:13:52.376Z</time>
      </trkpt>
      <trkpt lat="49.6085" lon="5.48522">
        <ele>272.30276489258</ele>
        <time>2021-01-08T21:13:56.202Z</time>
      </trkpt>
      <trkpt lat="49.61123" lon="5.48808">
        <ele>297.40899658203</ele>
        <time>2021-01-08T21:14:00.094Z</time>
      </trkpt>
      <trkpt lat="49.61123" lon="5.48808">
        <ele>297.40991210938</ele>
        <time>2021-01-08T21:14:03.986Z</time>
      </trkpt>
      <trkpt lat="49.61185" lon="5.48873">
        <ele>300.3359375</ele>
        <time>2021-01-08T21:14:07.893Z</time>
      </trkpt>
      <trkpt lat="49.61185" lon="5.48873">
        <ele>300.33563232422</ele>
        <time>2021-01-08T21:14:11.800Z</time>
      </trkpt>
      <trkpt lat="49.61504" lon="5.49194">
        <ele>308.05200195312</ele>
        <time>2021-01-08T21:14:15.783Z</time>
      </trkpt>
      <trkpt lat="49.61605" lon="5.49338">
        <ele>315.85882568359</ele>
        <time>2021-01-08T21:14:19.794Z</time>
      </trkpt>
      <trkpt lat="49.6169" lon="5.49457">
        <ele>308.77340698242</ele>
        <time>2021-01-08T21:14:23.828Z</time>
      </trkpt>
      <trkpt lat="49.61905" lon="5.49508">
        <ele>318.30920410156</ele>
        <time>2021-01-08T21:14:27.905Z</time>
      </trkpt>
      <trkpt lat="49.61938" lon="5.49566">
        <ele>320.36764526367</ele>
        <time>2021-01-08T21:14:31.992Z</time>
      </trkpt>
      <trkpt lat="49.61981" lon="5.49771">
        <ele>316.95559692383</ele>
        <time>2021-01-08T21:14:36.107Z</time>
      </trkpt>
      <trkpt lat="49.61981" lon="5.49771">
        <ele>316.95620727539</ele>
        <time>2021-01-08T21:14:40.222Z</time>
      </trkpt>
      <trkpt lat="49.61987" lon="5.49798">
        <ele>316.14019775391</ele>
        <time>2021-01-08T21:14:44.341Z</time>
      </trkpt>
      <trkpt lat="49.61993" lon="5.49887">
        <ele>317.71957397461</ele>
        <time>2021-01-08T21:14:48.472Z</time>
      </trkpt>
      <trkpt lat="49.61978" lon="5.49944">
        <ele>319.7868347168</ele>
        <time>2021-01-08T21:14:52.611Z</time>
      </trkpt>
      <trkpt lat="49.62014" lon="5.50092">
        <ele>318</ele>
        <time>2021-01-08T21:14:56.770Z</time>
      </trkpt>
      <trkpt lat="49.62019" lon="5.50145">
        <ele>315.92712402344</ele>
        <time>2021-01-08T21:15:00.936Z</time>
      </trkpt>
      <trkpt lat="49.62041" lon="5.50208">
        <ele>316.55023193359</ele>
        <time>2021-01-08T21:15:05.111Z</time>
      </trkpt>
      <trkpt lat="49.62087" lon="5.50308">
        <ele>315.77127075195</ele>
        <time>2021-01-08T21:15:09.302Z</time>
      </trkpt>
      <trkpt lat="49.62163" lon="5.5039">
        <ele>315.69192504883</ele>
        <time>2021-01-08T21:15:13.512Z</time>
      </trkpt>
      <trkpt lat="49.62282" lon="5.50497">
        <ele>318.62115478516</ele>
        <time>2021-01-08T21:15:17.749Z</time>
      </trkpt>
      <trkpt lat="49.62372" lon="5.50615">
        <ele>306.18807983398</ele>
        <time>2021-01-08T21:15:22.010Z</time>
      </trkpt>
      <trkpt lat="49.6242" lon="5.50641">
        <ele>302.01644897461</ele>
        <time>2021-01-08T21:15:26.281Z</time>
      </trkpt>
      <trkpt lat="49.62487" lon="5.50635">
        <ele>297.14538574219</ele>
        <time>2021-01-08T21:15:30.566Z</time>
      </trkpt>
      <trkpt lat="49.62513" lon="5.50661">
        <ele>294.57244873047</ele>
        <time>2021-01-08T21:15:34.857Z</time>
      </trkpt>
      <trkpt lat="49.62521" lon="5.50684">
        <ele>294.71557617188</ele>
        <time>2021-01-08T21:15:39.151Z</time>
      </trkpt>
      <trkpt lat="49.62568" lon="5.50725">
        <ele>294.57723999023</ele>
        <time>2021-01-08T21:15:43.456Z</time>
      </trkpt>
      <trkpt lat="49.62594" lon="5.50758">
        <ele>295.49719238281</ele>
        <time>2021-01-08T21:15:47.768Z</time>
      </trkpt>
      <trkpt lat="49.62731" lon="5.50986">
        <ele>305.75671386719</ele>
        <time>2021-01-08T21:15:52.120Z</time>
      </trkpt>
      <trkpt lat="49.62766" lon="5.51029">
        <ele>307.67080688477</ele>
        <time>2021-01-08T21:15:56.481Z</time>
      </trkpt>
      <trkpt lat="49.62766" lon="5.51029">
        <ele>307.67199707031</ele>
        <time>2021-01-08T21:16:00.842Z</time>
      </trkpt>
      <trkpt lat="49.62877" lon="5.51152">
        <ele>316.84329223633</ele>
        <time>2021-01-08T21:16:05.231Z</time>
      </trkpt>
      <trkpt lat="49.62877" lon="5.51152">
        <ele>316.84417724609</ele>
        <time>2021-01-08T21:16:09.620Z</time>
      </trkpt>
      <trkpt lat="49.62915" lon="5.51194">
        <ele>319.64736938477</ele>
        <time>2021-01-08T21:16:14.018Z</time>
      </trkpt>
      <trkpt lat="49.62994" lon="5.5134">
        <ele>320.88766479492</ele>
        <time>2021-01-08T21:16:18.441Z</time>
      </trkpt>
      <trkpt lat="49.63043" lon="5.51391">
        <ele>326.61526489258</ele>
        <time>2021-01-08T21:16:22.875Z</time>
      </trkpt>
      <trkpt lat="49.63095" lon="5.51428">
        <ele>329.29586791992</ele>
        <time>2021-01-08T21:16:27.321Z</time>
      </trkpt>
      <trkpt lat="49.63206" lon="5.51473">
        <ele>332.57528686523</ele>
        <time>2021-01-08T21:16:31.790Z</time>
      </trkpt>
      <trkpt lat="49.63277" lon="5.51481">
        <ele>337.31866455078</ele>
        <time>2021-01-08T21:16:36.273Z</time>
      </trkpt>
      <trkpt lat="49.6331" lon="5.51514">
        <ele>339.97259521484</ele>
        <time>2021-01-08T21:16:40.764Z</time>
      </trkpt>
      <trkpt lat="49.63334" lon="5.51558">
        <ele>344.15362548828</ele>
        <time>2021-01-08T21:16:45.263Z</time>
      </trkpt>
      <trkpt lat="49.63362" lon="5.51646">
        <ele>342.17895507812</ele>
        <time>2021-01-08T21:16:49.774Z</time>
      </trkpt>
      <trkpt lat="49.63412" lon="5.51759">
        <ele>343.68670654297</ele>
        <time>2021-01-08T21:16:54.303Z</time>
      </trkpt>
      <trkpt lat="49.63425" lon="5.51833">
        <ele>345.98376464844</ele>
        <time>2021-01-08T21:16:58.842Z</time>
      </trkpt>
      <trkpt lat="49.63422" lon="5.51929">
        <ele>350.42031860352</ele>
        <time>2021-01-08T21:17:03.393Z</time>
      </trkpt>
      <trkpt lat="49.6343" lon="5.51949">
        <ele>351.30792236328</ele>
        <time>2021-01-08T21:17:07.947Z</time>
      </trkpt>
      <trkpt lat="49.6346" lon="5.52097">
        <ele>356.05825805664</ele>
        <time>2021-01-08T21:17:12.522Z</time>
      </trkpt>
      <trkpt lat="49.63461" lon="5.52158">
        <ele>356.07415771484</ele>
        <time>2021-01-08T21:17:17.105Z</time>
      </trkpt>
      <trkpt lat="49.63487" lon="5.52158">
        <ele>354.92684936523</ele>
        <time>2021-01-08T21:17:21.693Z</time>
      </trkpt>
      <trkpt lat="49.63509" lon="5.52147">
        <ele>354.94174194336</ele>
        <time>2021-01-08T21:17:26.286Z</time>
      </trkpt>
      <trkpt lat="49.63565" lon="5.52104">
        <ele>356.62606811523</ele>
        <time>2021-01-08T21:17:30.891Z</time>
      </trkpt>
      <trkpt lat="49.63616" lon="5.52061">
        <ele>360.16973876953</ele>
        <time>2021-01-08T21:17:35.508Z</time>
      </trkpt>
      <trkpt lat="49.63678" lon="5.51967">
        <ele>361.263671875</ele>
        <time>2021-01-08T21:17:40.142Z</time>
      </trkpt>
      <trkpt lat="49.63678" lon="5.51967">
        <ele>361.26397705078</ele>
        <time>2021-01-08T21:17:44.776Z</time>
      </trkpt>
      <trkpt lat="49.63692" lon="5.51946">
        <ele>361.76473999023</ele>
        <time>2021-01-08T21:17:49.414Z</time>
      </trkpt>
      <trkpt lat="49.63712" lon="5.52112">
        <ele>364.97360229492</ele>
        <time>2021-01-08T21:17:54.074Z</time>
      </trkpt>
      <trkpt lat="49.63773" lon="5.52279">
        <ele>361.69934082031</ele>
        <time>2021-01-08T21:17:58.759Z</time>
      </trkpt>
      <trkpt lat="49.63772" lon="5.52302">
        <ele>361.66070556641</ele>
        <time>2021-01-08T21:18:03.447Z</time>
      </trkpt>
      <trkpt lat="49.63729" lon="5.52427">
        <ele>361.45297241211</ele>
        <time>2021-01-08T21:18:08.153Z</time>
      </trkpt>
      <trkpt lat="49.63627" lon="5.52789">
        <ele>360.55206298828</ele>
        <time>2021-01-08T21:18:12.910Z</time>
      </trkpt>
      <trkpt lat="49.63598" lon="5.52873">
        <ele>361.60015869141</ele>
        <time>2021-01-08T21:18:17.680Z</time>
      </trkpt>
      <trkpt lat="49.63573" lon="5.52906">
        <ele>359.36053466797</ele>
        <time>2021-01-08T21:18:22.457Z</time>
      </trkpt>
      <trkpt lat="49.6352" lon="5.53007">
        <ele>354.94680786133</ele>
        <time>2021-01-08T21:18:27.250Z</time>
      </trkpt>
      <trkpt lat="49.63482" lon="5.53115">
        <ele>354.87359619141</ele>
        <time>2021-01-08T21:18:32.059Z</time>
      </trkpt>
      <trkpt lat="49.63479" lon="5.53191">
        <ele>350.46072387695</ele>
        <time>2021-01-08T21:18:36.878Z</time>
      </trkpt>
      <trkpt lat="49.63469" lon="5.53251">
        <ele>348</ele>
        <time>2021-01-08T21:18:41.705Z</time>
      </trkpt>
      <trkpt lat="49.63469" lon="5.53285">
        <ele>347.73321533203</ele>
        <time>2021-01-08T21:18:46.537Z</time>
      </trkpt>
      <trkpt lat="49.63474" lon="5.53314">
        <ele>347.92657470703</ele>
        <time>2021-01-08T21:18:51.373Z</time>
      </trkpt>
      <trkpt lat="49.63683" lon="5.53285">
        <ele>346.00161743164</ele>
        <time>2021-01-08T21:18:56.251Z</time>
      </trkpt>
      <trkpt lat="49.63748" lon="5.53289">
        <ele>345.22708129883</ele>
        <time>2021-01-08T21:19:01.142Z</time>
      </trkpt>
      <trkpt lat="49.63839" lon="5.53319">
        <ele>338</ele>
        <time>2021-01-08T21:19:06.051Z</time>
      </trkpt>
      <trkpt lat="49.64009" lon="5.53384">
        <ele>340</ele>
        <time>2021-01-08T21:19:10.995Z</time>
      </trkpt>
      <trkpt lat="49.64045" lon="5.534">
        <ele>340</ele>
        <time>2021-01-08T21:19:15.947Z</time>
      </trkpt>
      <trkpt lat="49.64045" lon="5.534">
        <ele>340</ele>
        <time>2021-01-08T21:19:20.899Z</time>
      </trkpt>
      <trkpt lat="49.64096" lon="5.53423">
        <ele>341.64434814453</ele>
        <time>2021-01-08T21:19:25.862Z</time>
      </trkpt>
      <trkpt lat="49.64105" lon="5.53429">
        <ele>342.26153564453</ele>
        <time>2021-01-08T21:19:30.826Z</time>
      </trkpt>
      <trkpt lat="49.64139" lon="5.53417">
        <ele>344.73278808594</ele>
        <time>2021-01-08T21:19:35.797Z</time>
      </trkpt>
      <trkpt lat="49.64502" lon="5.5327">
        <ele>355.91790771484</ele>
        <time>2021-01-08T21:19:40.844Z</time>
      </trkpt>
      <trkpt lat="49.64524" lon="5.53261">
        <ele>357.45697021484</ele>
        <time>2021-01-08T21:19:45.895Z</time>
      </trkpt>
      <trkpt lat="49.6452" lon="5.53282">
        <ele>357.14807128906</ele>
        <time>2021-01-08T21:19:50.949Z</time>
      </trkpt>
      <trkpt lat="49.64619" lon="5.53253">
        <ele>360.18402099609</ele>
        <time>2021-01-08T21:19:56.023Z</time>
      </trkpt>
      <trkpt lat="49.64688" lon="5.53282">
        <ele>363.27258300781</ele>
        <time>2021-01-08T21:20:01.112Z</time>
      </trkpt>
      <trkpt lat="49.647" lon="5.53387">
        <ele>365.36618041992</ele>
        <time>2021-01-08T21:20:06.214Z</time>
      </trkpt>
      <trkpt lat="49.64741" lon="5.535">
        <ele>367.21356201172</ele>
        <time>2021-01-08T21:20:11.333Z</time>
      </trkpt>
      <trkpt lat="49.64761" lon="5.53523">
        <ele>368.71115112305</ele>
        <time>2021-01-08T21:20:16.457Z</time>
      </trkpt>
      <trkpt lat="49.64834" lon="5.5358">
        <ele>370.19595336914</ele>
        <time>2021-01-08T21:20:21.598Z</time>
      </trkpt>
      <trkpt lat="49.64907" lon="5.53591">
        <ele>373.56274414062</ele>
        <time>2021-01-08T21:20:26.753Z</time>
      </trkpt>
      <trkpt lat="49.64967" lon="5.53638">
        <ele>374.81405639648</ele>
        <time>2021-01-08T21:20:31.922Z</time>
      </trkpt>
      <trkpt lat="49.65017" lon="5.53884">
        <ele>362.77334594727</ele>
        <time>2021-01-08T21:20:37.124Z</time>
      </trkpt>
      <trkpt lat="49.65024" lon="5.54">
        <ele>363.6657409668</ele>
        <time>2021-01-08T21:20:42.341Z</time>
      </trkpt>
      <trkpt lat="49.65051" lon="5.54147">
        <ele>359</ele>
        <time>2021-01-08T21:20:47.578Z</time>
      </trkpt>
      <trkpt lat="49.65054" lon="5.54263">
        <ele>360.4423828125</ele>
        <time>2021-01-08T21:20:52.830Z</time>
      </trkpt>
      <trkpt lat="49.65059" lon="5.54355">
        <ele>360.27551269531</ele>
        <time>2021-01-08T21:20:58.094Z</time>
      </trkpt>
      <trkpt lat="49.65059" lon="5.54362">
        <ele>360.00521850586</ele>
        <time>2021-01-08T21:21:03.359Z</time>
      </trkpt>
      <trkpt lat="49.65052" lon="5.54364">
        <ele>359.93130493164</ele>
        <time>2021-01-08T21:21:08.626Z</time>
      </trkpt>
      <trkpt lat="49.65052" lon="5.54364">
        <ele>359.93130493164</ele>
        <time>2021-01-08T21:21:13.893Z</time>
      </trkpt>
      <trkpt lat="49.65059" lon="5.54362">
        <ele>360.00521850586</ele>
        <time>2021-01-08T21:21:19.161Z</time>
      </trkpt>
      <trkpt lat="49.65057" lon="5.54437">
        <ele>359.69772338867</ele>
        <time>2021-01-08T21:21:24.439Z</time>
      </trkpt>
      <trkpt lat="49.65081" lon="5.54517">
        <ele>359.23132324219</ele>
        <time>2021-01-08T21:21:29.728Z</time>
      </trkpt>
      <trkpt lat="49.6513" lon="5.54619">
        <ele>356.13296508789</ele>
        <time>2021-01-08T21:21:35.034Z</time>
      </trkpt>
      <trkpt lat="49.65193" lon="5.54889">
        <ele>356.0461730957</ele>
        <time>2021-01-08T21:21:40.377Z</time>
      </trkpt>
      <trkpt lat="49.65229" lon="5.54946">
        <ele>353.90301513672</ele>
        <time>2021-01-08T21:21:45.730Z</time>
      </trkpt>
      <trkpt lat="49.65284" lon="5.55065">
        <ele>352.58053588867</ele>
        <time>2021-01-08T21:21:51.102Z</time>
      </trkpt>
      <trkpt lat="49.65325" lon="5.55163">
        <ele>352.333984375</ele>
        <time>2021-01-08T21:21:56.489Z</time>
      </trkpt>
      <trkpt lat="49.65336" lon="5.55225">
        <ele>354.87915039062</ele>
        <time>2021-01-08T21:22:01.885Z</time>
      </trkpt>
      <trkpt lat="49.65335" lon="5.55253">
        <ele>352.95635986328</ele>
        <time>2021-01-08T21:22:07.284Z</time>
      </trkpt>
      <trkpt lat="49.65314" lon="5.55297">
        <ele>349.89413452148</ele>
        <time>2021-01-08T21:22:12.690Z</time>
      </trkpt>
      <trkpt lat="49.65343" lon="5.55317">
        <ele>350.02011108398</ele>
        <time>2021-01-08T21:22:18.103Z</time>
      </trkpt>
      <trkpt lat="49.65335" lon="5.5539">
        <ele>347</ele>
        <time>2021-01-08T21:22:23.525Z</time>
      </trkpt>
      <trkpt lat="49.65335" lon="5.5539">
        <ele>347</ele>
        <time>2021-01-08T21:22:28.947Z</time>
      </trkpt>
      <trkpt lat="49.65314" lon="5.55575">
        <ele>346.92929077148</ele>
        <time>2021-01-08T21:22:34.394Z</time>
      </trkpt>
      <trkpt lat="49.65312" lon="5.55617">
        <ele>346.67218017578</ele>
        <time>2021-01-08T21:22:39.846Z</time>
      </trkpt>
      <trkpt lat="49.65312" lon="5.55617">
        <ele>346.67218017578</ele>
        <time>2021-01-08T21:22:45.298Z</time>
      </trkpt>
      <trkpt lat="49.65311" lon="5.55649">
        <ele>346.87249755859</ele>
        <time>2021-01-08T21:22:50.754Z</time>
      </trkpt>
      <trkpt lat="49.65323" lon="5.55756">
        <ele>345.62924194336</ele>
        <time>2021-01-08T21:22:56.225Z</time>
      </trkpt>
      <trkpt lat="49.65322" lon="5.55756">
        <ele>345.63012695312</ele>
        <time>2021-01-08T21:23:01.696Z</time>
      </trkpt>
      <trkpt lat="49.6537" lon="5.56051">
        <ele>350.99642944336</ele>
        <time>2021-01-08T21:23:07.206Z</time>
      </trkpt>
      <trkpt lat="49.6537" lon="5.56093">
        <ele>347.01132202148</ele>
        <time>2021-01-08T21:23:12.722Z</time>
      </trkpt>
      <trkpt lat="49.65336" lon="5.56246">
        <ele>347.1233215332</ele>
        <time>2021-01-08T21:23:18.259Z</time>
      </trkpt>
      <trkpt lat="49.65335" lon="5.56318">
        <ele>346.23916625977</ele>
        <time>2021-01-08T21:23:23.805Z</time>
      </trkpt>
      <trkpt lat="49.65335" lon="5.56318">
        <ele>346.24008178711</ele>
        <time>2021-01-08T21:23:29.351Z</time>
      </trkpt>
      <trkpt lat="49.65335" lon="5.56434">
        <ele>347.7160949707</ele>
        <time>2021-01-08T21:23:34.912Z</time>
      </trkpt>
      <trkpt lat="49.65334" lon="5.56473">
        <ele>348.18399047852</ele>
        <time>2021-01-08T21:23:40.478Z</time>
      </trkpt>
      <trkpt lat="49.65295" lon="5.56438">
        <ele>350.64196777344</ele>
        <time>2021-01-08T21:23:46.053Z</time>
      </trkpt>
      <trkpt lat="49.65291" lon="5.5645">
        <ele>351.14251708984</ele>
        <time>2021-01-08T21:23:51.630Z</time>
      </trkpt>
      <trkpt lat="49.65291" lon="5.5645">
        <ele>351.14071655273</ele>
        <time>2021-01-08T21:23:57.207Z</time>
      </trkpt>
      <trkpt lat="49.65295" lon="5.56438">
        <ele>350.64105224609</ele>
        <time>2021-01-08T21:24:02.785Z</time>
      </trkpt>
      <trkpt lat="49.65193" lon="5.56334">
        <ele>352.85345458984</ele>
        <time>2021-01-08T21:24:08.388Z</time>
      </trkpt>
      <trkpt lat="49.65193" lon="5.56334">
        <ele>352.85314941406</ele>
        <time>2021-01-08T21:24:13.991Z</time>
      </trkpt>
      <trkpt lat="49.65127" lon="5.56218">
        <ele>355.79544067383</ele>
        <time>2021-01-08T21:24:19.614Z</time>
      </trkpt>
      <trkpt lat="49.65106" lon="5.56196">
        <ele>354.98455810547</ele>
        <time>2021-01-08T21:24:25.242Z</time>
      </trkpt>
      <trkpt lat="49.65106" lon="5.56196">
        <ele>354.98455810547</ele>
        <time>2021-01-08T21:24:30.870Z</time>
      </trkpt>
      <trkpt lat="49.64943" lon="5.56069">
        <ele>346.85980224609</ele>
        <time>2021-01-08T21:24:36.535Z</time>
      </trkpt>
      <trkpt lat="49.64889" lon="5.55968">
        <ele>344.62915039062</ele>
        <time>2021-01-08T21:24:42.217Z</time>
      </trkpt>
      <trkpt lat="49.64855" lon="5.55937">
        <ele>341.18515014648</ele>
        <time>2021-01-08T21:24:47.907Z</time>
      </trkpt>
      <trkpt lat="49.6456" lon="5.56114">
        <ele>342.99789428711</ele>
        <time>2021-01-08T21:24:53.660Z</time>
      </trkpt>
      <trkpt lat="49.6456" lon="5.56114">
        <ele>342.99819946289</ele>
        <time>2021-01-08T21:24:59.413Z</time>
      </trkpt>
      <trkpt lat="49.64554" lon="5.56117">
        <ele>343.19033813477</ele>
        <time>2021-01-08T21:25:05.167Z</time>
      </trkpt>
      <trkpt lat="49.64401" lon="5.56214">
        <ele>344.78247070312</ele>
        <time>2021-01-08T21:25:10.954Z</time>
      </trkpt>
      <trkpt lat="49.64401" lon="5.56214">
        <ele>344.78305053711</ele>
        <time>2021-01-08T21:25:16.741Z</time>
      </trkpt>
      <trkpt lat="49.6427" lon="5.56302">
        <ele>341.03839111328</ele>
        <time>2021-01-08T21:25:22.557Z</time>
      </trkpt>
      <trkpt lat="49.64259" lon="5.56302">
        <ele>341.81063842773</ele>
        <time>2021-01-08T21:25:28.375Z</time>
      </trkpt>
      <trkpt lat="49.64183" lon="5.56183">
        <ele>341.46264648438</ele>
        <time>2021-01-08T21:25:34.215Z</time>
      </trkpt>
      <trkpt lat="49.6417" lon="5.5617">
        <ele>339.11819458008</ele>
        <time>2021-01-08T21:25:40.058Z</time>
      </trkpt>
      <trkpt lat="49.64153" lon="5.56171">
        <ele>336.76278686523</ele>
        <time>2021-01-08T21:25:45.904Z</time>
      </trkpt>
      <trkpt lat="49.64102" lon="5.56203">
        <ele>334.5940246582</ele>
        <time>2021-01-08T21:25:51.761Z</time>
      </trkpt>
      <trkpt lat="49.64025" lon="5.56283">
        <ele>329.52603149414</ele>
        <time>2021-01-08T21:25:57.637Z</time>
      </trkpt>
      <trkpt lat="49.64009" lon="5.56316">
        <ele>326.05023193359</ele>
        <time>2021-01-08T21:26:03.518Z</time>
      </trkpt>
      <trkpt lat="49.63975" lon="5.56291">
        <ele>316.17263793945</ele>
        <time>2021-01-08T21:26:09.407Z</time>
      </trkpt>
      <trkpt lat="49.63962" lon="5.56296">
        <ele>313.54693603516</ele>
        <time>2021-01-08T21:26:15.298Z</time>
      </trkpt>
      <trkpt lat="49.63949" lon="5.5633">
        <ele>311.19305419922</ele>
        <time>2021-01-08T21:26:21.195Z</time>
      </trkpt>
      <trkpt lat="49.63949" lon="5.5633">
        <ele>311.19122314453</ele>
        <time>2021-01-08T21:26:27.092Z</time>
      </trkpt>
      <trkpt lat="49.63951" lon="5.5635">
        <ele>311.65460205078</ele>
        <time>2021-01-08T21:26:32.991Z</time>
      </trkpt>
      <trkpt lat="49.63946" lon="5.56373">
        <ele>311.73126220703</ele>
        <time>2021-01-08T21:26:38.893Z</time>
      </trkpt>
      <trkpt lat="49.63917" lon="5.56392">
        <ele>310.17797851562</ele>
        <time>2021-01-08T21:26:44.802Z</time>
      </trkpt>
      <trkpt lat="49.63854" lon="5.56463">
        <ele>309.9596862793</ele>
        <time>2021-01-08T21:26:50.726Z</time>
      </trkpt>
      <trkpt lat="49.63854" lon="5.56463">
        <ele>309.95697021484</ele>
        <time>2021-01-08T21:26:56.650Z</time>
      </trkpt>
      <trkpt lat="49.63829" lon="5.56509">
        <ele>306.05517578125</ele>
        <time>2021-01-08T21:27:02.582Z</time>
      </trkpt>
      <trkpt lat="49.63828" lon="5.56575">
        <ele>308.70092773438</ele>
        <time>2021-01-08T21:27:08.523Z</time>
      </trkpt>
      <trkpt lat="49.63828" lon="5.56575">
        <ele>308.70092773438</ele>
        <time>2021-01-08T21:27:14.464Z</time>
      </trkpt>
      <trkpt lat="49.63828" lon="5.56589">
        <ele>309.181640625</ele>
        <time>2021-01-08T21:27:20.407Z</time>
      </trkpt>
      <trkpt lat="49.63825" lon="5.56596">
        <ele>308.71887207031</ele>
        <time>2021-01-08T21:27:26.351Z</time>
      </trkpt>
      <trkpt lat="49.63822" lon="5.56592">
        <ele>308.64166259766</ele>
        <time>2021-01-08T21:27:32.295Z</time>
      </trkpt>
      <trkpt lat="49.63786" lon="5.56539">
        <ele>306.0517578125</ele>
        <time>2021-01-08T21:27:38.249Z</time>
      </trkpt>
      <trkpt lat="49.63741" lon="5.56469">
        <ele>306.20809936523</ele>
        <time>2021-01-08T21:27:44.216Z</time>
      </trkpt>
      <trkpt lat="49.63736" lon="5.56476">
        <ele>307.08154296875</ele>
        <time>2021-01-08T21:27:50.184Z</time>
      </trkpt>
      <trkpt lat="49.63616" lon="5.56404">
        <ele>318.27471923828</ele>
        <time>2021-01-08T21:27:56.178Z</time>
      </trkpt>
      <trkpt lat="49.63616" lon="5.56404">
        <ele>318.27624511719</ele>
        <time>2021-01-08T21:28:02.172Z</time>
      </trkpt>
      <trkpt lat="49.63595" lon="5.56392">
        <ele>321.60296630859</ele>
        <time>2021-01-08T21:28:08.171Z</time>
      </trkpt>
      <trkpt lat="49.63517" lon="5.56386">
        <ele>330.87747192383</ele>
        <time>2021-01-08T21:28:14.185Z</time>
      </trkpt>
      <trkpt lat="49.63505" lon="5.56401">
        <ele>332.31359863281</ele>
        <time>2021-01-08T21:28:20.202Z</time>
      </trkpt>
      <trkpt lat="49.63506" lon="5.56431">
        <ele>333.71231079102</ele>
        <time>2021-01-08T21:28:26.223Z</time>
      </trkpt>
      <trkpt lat="49.63481" lon="5.56445">
        <ele>335.8034362793</ele>
        <time>2021-01-08T21:28:32.250Z</time>
      </trkpt>
      <trkpt lat="49.63477" lon="5.56458">
        <ele>336.40615844727</ele>
        <time>2021-01-08T21:28:38.278Z</time>
      </trkpt>
      <trkpt lat="49.63395" lon="5.56547">
        <ele>337.54211425781</ele>
        <time>2021-01-08T21:28:44.327Z</time>
      </trkpt>
      <trkpt lat="49.6325" lon="5.56704">
        <ele>341.73336791992</ele>
        <time>2021-01-08T21:28:50.411Z</time>
      </trkpt>
      <trkpt lat="49.6325" lon="5.56704">
        <ele>341.73394775391</ele>
        <time>2021-01-08T21:28:56.495Z</time>
      </trkpt>
      <trkpt lat="49.63246" lon="5.56708">
        <ele>341.59701538086</ele>
        <time>2021-01-08T21:29:02.580Z</time>
      </trkpt>
      <trkpt lat="49.63108" lon="5.56847">
        <ele>338.81777954102</ele>
        <time>2021-01-08T21:29:08.698Z</time>
      </trkpt>
      <trkpt lat="49.63108" lon="5.56847">
        <ele>338.8180847168</ele>
        <time>2021-01-08T21:29:14.816Z</time>
      </trkpt>
      <trkpt lat="49.6287" lon="5.57087">
        <ele>335.88461303711</ele>
        <time>2021-01-08T21:29:20.991Z</time>
      </trkpt>
      <trkpt lat="49.62855" lon="5.56959">
        <ele>336.20806884766</ele>
        <time>2021-01-08T21:29:27.183Z</time>
      </trkpt>
      <trkpt lat="49.62814" lon="5.56969">
        <ele>335.17922973633</ele>
        <time>2021-01-08T21:29:33.383Z</time>
      </trkpt>
      <trkpt lat="49.62748" lon="5.56937">
        <ele>335</ele>
        <time>2021-01-08T21:29:39.597Z</time>
      </trkpt>
      <trkpt lat="49.62493" lon="5.56709">
        <ele>346.36608886719</ele>
        <time>2021-01-08T21:29:45.870Z</time>
      </trkpt>
      <trkpt lat="49.62375" lon="5.56692">
        <ele>348.61352539062</ele>
        <time>2021-01-08T21:29:52.167Z</time>
      </trkpt>
      <trkpt lat="49.62348" lon="5.56675">
        <ele>349</ele>
        <time>2021-01-08T21:29:58.470Z</time>
      </trkpt>
      <trkpt lat="49.62348" lon="5.56675">
        <ele>349</ele>
        <time>2021-01-08T21:30:04.773Z</time>
      </trkpt>
      <trkpt lat="49.62318" lon="5.56656">
        <ele>349</ele>
        <time>2021-01-08T21:30:11.082Z</time>
      </trkpt>
      <trkpt lat="49.62296" lon="5.56662">
        <ele>348.52941894531</ele>
        <time>2021-01-08T21:30:17.396Z</time>
      </trkpt>
      <trkpt lat="49.62284" lon="5.56489">
        <ele>347.89532470703</ele>
        <time>2021-01-08T21:30:23.733Z</time>
      </trkpt>
      <trkpt lat="49.62301" lon="5.56378">
        <ele>345.82659912109</ele>
        <time>2021-01-08T21:30:30.084Z</time>
      </trkpt>
      <trkpt lat="49.62353" lon="5.56201">
        <ele>344.49295043945</ele>
        <time>2021-01-08T21:30:36.461Z</time>
      </trkpt>
      <trkpt lat="49.62353" lon="5.56164">
        <ele>346.173828125</ele>
        <time>2021-01-08T21:30:42.843Z</time>
      </trkpt>
      <trkpt lat="49.62365" lon="5.56085">
        <ele>345.00704956055</ele>
        <time>2021-01-08T21:30:49.235Z</time>
      </trkpt>
      <trkpt lat="49.62358" lon="5.56029">
        <ele>345.23132324219</ele>
        <time>2021-01-08T21:30:55.634Z</time>
      </trkpt>
      <trkpt lat="49.62344" lon="5.56006">
        <ele>345.61663818359</ele>
        <time>2021-01-08T21:31:02.038Z</time>
      </trkpt>
      <trkpt lat="49.62339" lon="5.55999">
        <ele>345.85214233398</ele>
        <time>2021-01-08T21:31:08.443Z</time>
      </trkpt>
      <trkpt lat="49.62363" lon="5.55868">
        <ele>341.13470458984</ele>
        <time>2021-01-08T21:31:14.866Z</time>
      </trkpt>
      <trkpt lat="49.62363" lon="5.55868">
        <ele>341.13562011719</ele>
        <time>2021-01-08T21:31:21.289Z</time>
      </trkpt>
      <trkpt lat="49.62366" lon="5.55856">
        <ele>340.70523071289</ele>
        <time>2021-01-08T21:31:27.713Z</time>
      </trkpt>
      <trkpt lat="49.62382" lon="5.55874">
        <ele>340.3818359375</ele>
        <time>2021-01-08T21:31:34.141Z</time>
      </trkpt>
      <trkpt lat="49.62389" lon="5.55935">
        <ele>340.71313476562</ele>
        <time>2021-01-08T21:31:40.577Z</time>
      </trkpt>
      <trkpt lat="49.62402" lon="5.5587">
        <ele>340.45742797852</ele>
        <time>2021-01-08T21:31:47.022Z</time>
      </trkpt>
      <trkpt lat="49.62428" lon="5.55809">
        <ele>339.36236572266</ele>
        <time>2021-01-08T21:31:53.477Z</time>
      </trkpt>
      <trkpt lat="49.62439" lon="5.5575">
        <ele>337</ele>
        <time>2021-01-08T21:31:59.940Z</time>
      </trkpt>
      <trkpt lat="49.62435" lon="5.5565">
        <ele>339.76712036133</ele>
        <time>2021-01-08T21:32:06.416Z</time>
      </trkpt>
      <trkpt lat="49.62442" lon="5.55568">
        <ele>341.56097412109</ele>
        <time>2021-01-08T21:32:12.902Z</time>
      </trkpt>
      <trkpt lat="49.62435" lon="5.5549">
        <ele>341.09762573242</ele>
        <time>2021-01-08T21:32:19.399Z</time>
      </trkpt>
      <trkpt lat="49.62405" lon="5.55476">
        <ele>340.53204345703</ele>
        <time>2021-01-08T21:32:25.902Z</time>
      </trkpt>
      <trkpt lat="49.62402" lon="5.55449">
        <ele>340.89016723633</ele>
        <time>2021-01-08T21:32:32.409Z</time>
      </trkpt>
      <trkpt lat="49.62402" lon="5.55449">
        <ele>340.89016723633</ele>
        <time>2021-01-08T21:32:38.916Z</time>
      </trkpt>
      <trkpt lat="49.62442" lon="5.55247">
        <ele>342.58843994141</ele>
        <time>2021-01-08T21:32:45.450Z</time>
      </trkpt>
      <trkpt lat="49.62459" lon="5.55122">
        <ele>345.73965454102</ele>
        <time>2021-01-08T21:32:52.001Z</time>
      </trkpt>
      <trkpt lat="49.62483" lon="5.55049">
        <ele>341.00885009766</ele>
        <time>2021-01-08T21:32:58.562Z</time>
      </trkpt>
      <trkpt lat="49.62483" lon="5.55049">
        <ele>341.00765991211</ele>
        <time>2021-01-08T21:33:05.123Z</time>
      </trkpt>
      <trkpt lat="49.62487" lon="5.55039">
        <ele>340.38983154297</ele>
        <time>2021-01-08T21:33:11.686Z</time>
      </trkpt>
      <trkpt lat="49.62504" lon="5.55027">
        <ele>337.95989990234</ele>
        <time>2021-01-08T21:33:18.253Z</time>
      </trkpt>
      <trkpt lat="49.625" lon="5.55003">
        <ele>338.53762817383</ele>
        <time>2021-01-08T21:33:24.823Z</time>
      </trkpt>
      <trkpt lat="49.62502" lon="5.54998">
        <ele>338.07656860352</ele>
        <time>2021-01-08T21:33:31.394Z</time>
      </trkpt>
      <trkpt lat="49.62502" lon="5.54998">
        <ele>338.07806396484</ele>
        <time>2021-01-08T21:03:13.000Z</time>
      </trkpt>
      <trkpt lat="49.62502" lon="5.54998">
        <ele>338.07806396484</ele>
        <time>2021-01-08T21:03:13.000Z</time>
      </trkpt>
      <trkpt lat="49.625" lon="5.55003">
        <ele>338.53762817383</ele>
        <time>2021-01-08T21:03:13.001Z</time>
      </trkpt>
      <trkpt lat="49.62504" lon="5.55027">
        <ele>337.95989990234</ele>
        <time>2021-01-08T21:03:13.005Z</time>
      </trkpt>
      <trkpt lat="49.62519" lon="5.55032">
        <ele>336.87872314453</ele>
        <time>2021-01-08T21:03:13.012Z</time>
      </trkpt>
      <trkpt lat="49.62531" lon="5.54992">
        <ele>336.01431274414</ele>
        <time>2021-01-08T21:03:13.025Z</time>
      </trkpt>
      <trkpt lat="49.62534" lon="5.54982">
        <ele>335.89877319336</ele>
        <time>2021-01-08T21:03:13.039Z</time>
      </trkpt>
      <trkpt lat="49.62536" lon="5.54977">
        <ele>335.87991333008</ele>
        <time>2021-01-08T21:03:13.054Z</time>
      </trkpt>
      <trkpt lat="49.62538" lon="5.54972">
        <ele>336</ele>
        <time>2021-01-08T21:03:13.070Z</time>
      </trkpt>
      <trkpt lat="49.62539" lon="5.54965">
        <ele>336</ele>
        <time>2021-01-08T21:03:13.087Z</time>
      </trkpt>
      <trkpt lat="49.62547" lon="5.54924">
        <ele>336.56457519531</ele>
        <time>2021-01-08T21:03:13.109Z</time>
      </trkpt>
      <trkpt lat="49.62558" lon="5.5489">
        <ele>337.96615600586</ele>
        <time>2021-01-08T21:03:13.136Z</time>
      </trkpt>
      <trkpt lat="49.62564" lon="5.54871">
        <ele>338.33724975586</ele>
        <time>2021-01-08T21:03:13.166Z</time>
      </trkpt>
      <trkpt lat="49.62596" lon="5.54766">
        <ele>336.97677612305</ele>
        <time>2021-01-08T21:03:13.211Z</time>
      </trkpt>
      <trkpt lat="49.6271" lon="5.54402">
        <ele>335.13247680664</ele>
        <time>2021-01-08T21:03:13.309Z</time>
      </trkpt>
      <trkpt lat="49.62728" lon="5.5435">
        <ele>335.24957275391</ele>
        <time>2021-01-08T21:03:13.414Z</time>
      </trkpt>
      <trkpt lat="49.62762" lon="5.54291">
        <ele>332.85125732422</ele>
        <time>2021-01-08T21:03:13.529Z</time>
      </trkpt>
      <trkpt lat="49.62762" lon="5.54291">
        <ele>332.85003662109</ele>
        <time>2021-01-08T21:03:13.644Z</time>
      </trkpt>
      <trkpt lat="49.62821" lon="5.54231">
        <ele>328.05126953125</ele>
        <time>2021-01-08T21:03:13.774Z</time>
      </trkpt>
      <trkpt lat="49.6304" lon="5.54096">
        <ele>329.25466918945</ele>
        <time>2021-01-08T21:03:13.951Z</time>
      </trkpt>
      <trkpt lat="49.6304" lon="5.54096">
        <ele>329.25436401367</ele>
        <time>2021-01-08T21:03:14.128Z</time>
      </trkpt>
      <trkpt lat="49.63053" lon="5.54088">
        <ele>328.42010498047</ele>
        <time>2021-01-08T21:03:14.308Z</time>
      </trkpt>
      <trkpt lat="49.63054" lon="5.54034">
        <ele>330.98449707031</ele>
        <time>2021-01-08T21:03:14.495Z</time>
      </trkpt>
      <trkpt lat="49.63086" lon="5.53958">
        <ele>330.10333251953</ele>
        <time>2021-01-08T21:03:14.693Z</time>
      </trkpt>
      <trkpt lat="49.63116" lon="5.53831">
        <ele>322.94033813477</ele>
        <time>2021-01-08T21:03:14.909Z</time>
      </trkpt>
      <trkpt lat="49.63117" lon="5.53804">
        <ele>322.43490600586</ele>
        <time>2021-01-08T21:03:15.128Z</time>
      </trkpt>
      <trkpt lat="49.63117" lon="5.53804">
        <ele>322.43463134766</ele>
        <time>2021-01-08T21:03:15.347Z</time>
      </trkpt>
      <trkpt lat="49.63123" lon="5.53705">
        <ele>328.24945068359</ele>
        <time>2021-01-08T21:03:15.580Z</time>
      </trkpt>
      <trkpt lat="49.63111" lon="5.53624">
        <ele>330.17910766602</ele>
        <time>2021-01-08T21:03:15.823Z</time>
      </trkpt>
      <trkpt lat="49.63086" lon="5.53526">
        <ele>328.03344726562</ele>
        <time>2021-01-08T21:03:16.080Z</time>
      </trkpt>
      <trkpt lat="49.63052" lon="5.53389">
        <ele>333.02728271484</ele>
        <time>2021-01-08T21:03:16.356Z</time>
      </trkpt>
      <trkpt lat="49.63048" lon="5.53349">
        <ele>334.45596313477</ele>
        <time>2021-01-08T21:03:16.637Z</time>
      </trkpt>
      <trkpt lat="49.6305" lon="5.53253">
        <ele>339.53637695312</ele>
        <time>2021-01-08T21:03:16.931Z</time>
      </trkpt>
      <trkpt lat="49.6304" lon="5.53113">
        <ele>342.32690429688</ele>
        <time>2021-01-08T21:03:17.243Z</time>
      </trkpt>
      <trkpt lat="49.6304" lon="5.53113">
        <ele>342.32659912109</ele>
        <time>2021-01-08T21:03:17.555Z</time>
      </trkpt>
      <trkpt lat="49.62981" lon="5.53012">
        <ele>336.02813720703</ele>
        <time>2021-01-08T21:03:17.885Z</time>
      </trkpt>
      <trkpt lat="49.62918" lon="5.52956">
        <ele>328.84939575195</ele>
        <time>2021-01-08T21:03:18.229Z</time>
      </trkpt>
      <trkpt lat="49.62881" lon="5.52933">
        <ele>327.02215576172</ele>
        <time>2021-01-08T21:03:18.581Z</time>
      </trkpt>
      <trkpt lat="49.62782" lon="5.52956">
        <ele>329.16851806641</ele>
        <time>2021-01-08T21:03:18.953Z</time>
      </trkpt>
      <trkpt lat="49.62777" lon="5.52958">
        <ele>329.27169799805</ele>
        <time>2021-01-08T21:03:19.327Z</time>
      </trkpt>
      <trkpt lat="49.62631" lon="5.52915">
        <ele>328.4821472168</ele>
        <time>2021-01-08T21:03:19.730Z</time>
      </trkpt>
      <trkpt lat="49.6271" lon="5.52859">
        <ele>334.30126953125</ele>
        <time>2021-01-08T21:03:20.151Z</time>
      </trkpt>
      <trkpt lat="49.62767" lon="5.52808">
        <ele>335.95556640625</ele>
        <time>2021-01-08T21:03:20.585Z</time>
      </trkpt>
      <trkpt lat="49.62845" lon="5.52642">
        <ele>343.20593261719</ele>
        <time>2021-01-08T21:03:21.046Z</time>
      </trkpt>
      <trkpt lat="49.62856" lon="5.52629">
        <ele>343.30990600586</ele>
        <time>2021-01-08T21:03:21.509Z</time>
      </trkpt>
      <trkpt lat="49.62874" lon="5.5254">
        <ele>344.88708496094</ele>
        <time>2021-01-08T21:03:21.984Z</time>
      </trkpt>
      <trkpt lat="49.62884" lon="5.52434">
        <ele>346.32568359375</ele>
        <time>2021-01-08T21:03:22.473Z</time>
      </trkpt>
      <trkpt lat="49.62883" lon="5.52389">
        <ele>345.64038085938</ele>
        <time>2021-01-08T21:03:22.968Z</time>
      </trkpt>
      <trkpt lat="49.62866" lon="5.52328">
        <ele>339.81704711914</ele>
        <time>2021-01-08T21:03:23.472Z</time>
      </trkpt>
      <trkpt lat="49.62845" lon="5.52297">
        <ele>337.99380493164</ele>
        <time>2021-01-08T21:03:23.982Z</time>
      </trkpt>
      <trkpt lat="49.62797" lon="5.52085">
        <ele>322.9055480957</ele>
        <time>2021-01-08T21:03:24.521Z</time>
      </trkpt>
      <trkpt lat="49.62797" lon="5.52084">
        <ele>322.90344238281</ele>
        <time>2021-01-08T21:03:25.060Z</time>
      </trkpt>
      <trkpt lat="49.62787" lon="5.52039">
        <ele>319.3974609375</ele>
        <time>2021-01-08T21:03:25.605Z</time>
      </trkpt>
      <trkpt lat="49.62759" lon="5.52009">
        <ele>318.31631469727</ele>
        <time>2021-01-08T21:03:26.157Z</time>
      </trkpt>
      <trkpt lat="49.62703" lon="5.5197">
        <ele>317.16348266602</ele>
        <time>2021-01-08T21:03:26.721Z</time>
      </trkpt>
      <trkpt lat="49.62627" lon="5.51949">
        <ele>317.38165283203</ele>
        <time>2021-01-08T21:03:27.301Z</time>
      </trkpt>
      <trkpt lat="49.6256" lon="5.51951">
        <ele>312.02792358398</ele>
        <time>2021-01-08T21:03:27.894Z</time>
      </trkpt>
      <trkpt lat="49.62473" lon="5.51981">
        <ele>309.31234741211</ele>
        <time>2021-01-08T21:03:28.505Z</time>
      </trkpt>
      <trkpt lat="49.62361" lon="5.51987">
        <ele>301.88452148438</ele>
        <time>2021-01-08T21:03:29.138Z</time>
      </trkpt>
      <trkpt lat="49.62352" lon="5.52088">
        <ele>311.74984741211</ele>
        <time>2021-01-08T21:03:29.785Z</time>
      </trkpt>
      <trkpt lat="49.62003" lon="5.5215">
        <ele>297.83627319336</ele>
        <time>2021-01-08T21:03:30.502Z</time>
      </trkpt>
      <trkpt lat="49.61977" lon="5.52176">
        <ele>299.32736206055</ele>
        <time>2021-01-08T21:03:31.225Z</time>
      </trkpt>
      <trkpt lat="49.61953" lon="5.52228">
        <ele>303.53921508789</ele>
        <time>2021-01-08T21:03:31.956Z</time>
      </trkpt>
      <trkpt lat="49.61944" lon="5.52273">
        <ele>305.22229003906</ele>
        <time>2021-01-08T21:03:32.694Z</time>
      </trkpt>
      <trkpt lat="49.61957" lon="5.52434">
        <ele>308.38619995117</ele>
        <time>2021-01-08T21:03:33.453Z</time>
      </trkpt>
      <trkpt lat="49.61957" lon="5.52434">
        <ele>308.38589477539</ele>
        <time>2021-01-08T21:03:34.212Z</time>
      </trkpt>
      <trkpt lat="49.61959" lon="5.52459">
        <ele>308.12322998047</ele>
        <time>2021-01-08T21:03:34.974Z</time>
      </trkpt>
      <trkpt lat="49.61913" lon="5.52589">
        <ele>298.97695922852</ele>
        <time>2021-01-08T21:03:35.755Z</time>
      </trkpt>
      <trkpt lat="49.61914" lon="5.52607">
        <ele>299.0495300293</ele>
        <time>2021-01-08T21:03:36.539Z</time>
      </trkpt>
      <trkpt lat="49.61923" lon="5.52623">
        <ele>298.38806152344</ele>
        <time>2021-01-08T21:03:37.325Z</time>
      </trkpt>
      <trkpt lat="49.61957" lon="5.52649">
        <ele>294.35382080078</ele>
        <time>2021-01-08T21:03:38.119Z</time>
      </trkpt>
      <trkpt lat="49.6196" lon="5.52681">
        <ele>290.00305175781</ele>
        <time>2021-01-08T21:03:38.917Z</time>
      </trkpt>
      <trkpt lat="49.61936" lon="5.52697">
        <ele>287.27169799805</ele>
        <time>2021-01-08T21:03:39.720Z</time>
      </trkpt>
      <trkpt lat="49.61918" lon="5.52726">
        <ele>284.54507446289</ele>
        <time>2021-01-08T21:03:40.529Z</time>
      </trkpt>
      <trkpt lat="49.6185" lon="5.52749">
        <ele>280.14654541016</ele>
        <time>2021-01-08T21:03:41.352Z</time>
      </trkpt>
      <trkpt lat="49.61925" lon="5.53012">
        <ele>285.51498413086</ele>
        <time>2021-01-08T21:03:42.212Z</time>
      </trkpt>
      <trkpt lat="49.61931" lon="5.53067">
        <ele>286.42437744141</ele>
        <time>2021-01-08T21:03:43.079Z</time>
      </trkpt>
      <trkpt lat="49.61929" lon="5.53095">
        <ele>287.39273071289</ele>
        <time>2021-01-08T21:03:43.950Z</time>
      </trkpt>
      <trkpt lat="49.61929" lon="5.53095">
        <ele>287.39273071289</ele>
        <time>2021-01-08T21:03:44.821Z</time>
      </trkpt>
      <trkpt lat="49.61927" lon="5.53118">
        <ele>288.20361328125</ele>
        <time>2021-01-08T21:03:45.695Z</time>
      </trkpt>
      <trkpt lat="49.61877" lon="5.53113">
        <ele>291.09103393555</ele>
        <time>2021-01-08T21:03:46.579Z</time>
      </trkpt>
      <trkpt lat="49.61877" lon="5.53113">
        <ele>291.08984375</ele>
        <time>2021-01-08T21:03:47.463Z</time>
      </trkpt>
      <trkpt lat="49.61861" lon="5.53111">
        <ele>292.21838378906</ele>
        <time>2021-01-08T21:03:48.350Z</time>
      </trkpt>
      <trkpt lat="49.61757" lon="5.53129">
        <ele>299.11108398438</ele>
        <time>2021-01-08T21:03:49.258Z</time>
      </trkpt>
      <trkpt lat="49.61683" lon="5.53142">
        <ele>303.61068725586</ele>
        <time>2021-01-08T21:03:50.181Z</time>
      </trkpt>
      <trkpt lat="49.61604" lon="5.53138">
        <ele>307.31359863281</ele>
        <time>2021-01-08T21:03:51.120Z</time>
      </trkpt>
      <trkpt lat="49.6157" lon="5.53125">
        <ele>308.17172241211</ele>
        <time>2021-01-08T21:03:52.066Z</time>
      </trkpt>
      <trkpt lat="49.61509" lon="5.53079">
        <ele>309.58782958984</ele>
        <time>2021-01-08T21:03:53.025Z</time>
      </trkpt>
      <trkpt lat="49.61444" lon="5.52975">
        <ele>316.38134765625</ele>
        <time>2021-01-08T21:03:54.003Z</time>
      </trkpt>
      <trkpt lat="49.61444" lon="5.52975">
        <ele>316.38256835938</ele>
        <time>2021-01-08T21:03:54.981Z</time>
      </trkpt>
      <trkpt lat="49.61372" lon="5.52857">
        <ele>324.43350219727</ele>
        <time>2021-01-08T21:03:55.980Z</time>
      </trkpt>
      <trkpt lat="49.61287" lon="5.52793">
        <ele>328.53378295898</ele>
        <time>2021-01-08T21:03:56.998Z</time>
      </trkpt>
      <trkpt lat="49.61258" lon="5.52778">
        <ele>332.27569580078</ele>
        <time>2021-01-08T21:03:58.022Z</time>
      </trkpt>
      <trkpt lat="49.61248" lon="5.52786">
        <ele>333.97937011719</ele>
        <time>2021-01-08T21:03:59.049Z</time>
      </trkpt>
      <trkpt lat="49.61246" lon="5.52831">
        <ele>335.25942993164</ele>
        <time>2021-01-08T21:04:00.082Z</time>
      </trkpt>
      <trkpt lat="49.61291" lon="5.52919">
        <ele>341.25674438477</ele>
        <time>2021-01-08T21:04:01.129Z</time>
      </trkpt>
      <trkpt lat="49.61287" lon="5.52976">
        <ele>341.49645996094</ele>
        <time>2021-01-08T21:04:02.184Z</time>
      </trkpt>
      <trkpt lat="49.61277" lon="5.53008">
        <ele>342.08312988281</ele>
        <time>2021-01-08T21:04:03.243Z</time>
      </trkpt>
      <trkpt lat="49.61208" lon="5.53128">
        <ele>348.94177246094</ele>
        <time>2021-01-08T21:04:04.323Z</time>
      </trkpt>
      <trkpt lat="49.61208" lon="5.53128">
        <ele>348.94329833984</ele>
        <time>2021-01-08T21:04:05.403Z</time>
      </trkpt>
      <trkpt lat="49.61154" lon="5.53205">
        <ele>345.66360473633</ele>
        <time>2021-01-08T21:04:06.498Z</time>
      </trkpt>
      <trkpt lat="49.61154" lon="5.53205">
        <ele>345.66418457031</ele>
        <time>2021-01-08T21:04:07.593Z</time>
      </trkpt>
      <trkpt lat="49.61132" lon="5.53236">
        <ele>345.45104980469</ele>
        <time>2021-01-08T21:04:08.694Z</time>
      </trkpt>
      <trkpt lat="49.61108" lon="5.53259">
        <ele>344.51611328125</ele>
        <time>2021-01-08T21:04:09.800Z</time>
      </trkpt>
      <trkpt lat="49.6111" lon="5.53273">
        <ele>344.94085693359</ele>
        <time>2021-01-08T21:04:10.908Z</time>
      </trkpt>
      <trkpt lat="49.6111" lon="5.5328">
        <ele>345.06838989258</ele>
        <time>2021-01-08T21:04:12.017Z</time>
      </trkpt>
      <trkpt lat="49.61114" lon="5.53287">
        <ele>345.60897827148</ele>
        <time>2021-01-08T21:04:13.127Z</time>
      </trkpt>
      <trkpt lat="49.61121" lon="5.53301">
        <ele>347.60403442383</ele>
        <time>2021-01-08T21:04:14.240Z</time>
      </trkpt>
      <trkpt lat="49.61266" lon="5.53569">
        <ele>359.45889282227</ele>
        <time>2021-01-08T21:04:15.398Z</time>
      </trkpt>
      <trkpt lat="49.61403" lon="5.53842">
        <ele>366.94253540039</ele>
        <time>2021-01-08T21:04:16.601Z</time>
      </trkpt>
      <trkpt lat="49.61441" lon="5.53918">
        <ele>367.51794433594</ele>
        <time>2021-01-08T21:04:17.816Z</time>
      </trkpt>
      <trkpt lat="49.61444" lon="5.53941">
        <ele>368.56048583984</ele>
        <time>2021-01-08T21:04:19.034Z</time>
      </trkpt>
      <trkpt lat="49.61478" lon="5.53996">
        <ele>370.40396118164</ele>
        <time>2021-01-08T21:04:20.262Z</time>
      </trkpt>
      <trkpt lat="49.61499" lon="5.54072">
        <ele>372.70779418945</ele>
        <time>2021-01-08T21:04:21.501Z</time>
      </trkpt>
      <trkpt lat="49.61601" lon="5.54254">
        <ele>374.01565551758</ele>
        <time>2021-01-08T21:04:22.771Z</time>
      </trkpt>
      <trkpt lat="49.61641" lon="5.54379">
        <ele>374.02487182617</ele>
        <time>2021-01-08T21:04:24.059Z</time>
      </trkpt>
      <trkpt lat="49.61669" lon="5.54442">
        <ele>373.02093505859</ele>
        <time>2021-01-08T21:04:25.357Z</time>
      </trkpt>
      <trkpt lat="49.61686" lon="5.54512">
        <ele>374.40063476562</ele>
        <time>2021-01-08T21:04:26.665Z</time>
      </trkpt>
      <trkpt lat="49.61712" lon="5.54583">
        <ele>375.09808349609</ele>
        <time>2021-01-08T21:04:27.984Z</time>
      </trkpt>
      <trkpt lat="49.61786" lon="5.54719">
        <ele>376.85293579102</ele>
        <time>2021-01-08T21:04:29.326Z</time>
      </trkpt>
      <trkpt lat="49.61798" lon="5.54767">
        <ele>376.06069946289</ele>
        <time>2021-01-08T21:04:30.674Z</time>
      </trkpt>
      <trkpt lat="49.61792" lon="5.54834">
        <ele>373.82345581055</ele>
        <time>2021-01-08T21:04:32.031Z</time>
      </trkpt>
      <trkpt lat="49.61792" lon="5.54835">
        <ele>373.82345581055</ele>
        <time>2021-01-08T21:04:33.388Z</time>
      </trkpt>
      <trkpt lat="49.61792" lon="5.54845">
        <ele>373.76251220703</ele>
        <time>2021-01-08T21:04:34.747Z</time>
      </trkpt>
      <trkpt lat="49.61792" lon="5.54863">
        <ele>375.02709960938</ele>
        <time>2021-01-08T21:04:36.108Z</time>
      </trkpt>
      <trkpt lat="49.61799" lon="5.54932">
        <ele>378.84707641602</ele>
        <time>2021-01-08T21:04:37.478Z</time>
      </trkpt>
      <trkpt lat="49.6178" lon="5.55049">
        <ele>377.95620727539</ele>
        <time>2021-01-08T21:04:38.864Z</time>
      </trkpt>
      <trkpt lat="49.61777" lon="5.55101">
        <ele>378.84036254883</ele>
        <time>2021-01-08T21:04:40.257Z</time>
      </trkpt>
      <trkpt lat="49.61786" lon="5.55159">
        <ele>380</ele>
        <time>2021-01-08T21:04:41.657Z</time>
      </trkpt>
      <trkpt lat="49.61791" lon="5.55236">
        <ele>381</ele>
        <time>2021-01-08T21:04:43.067Z</time>
      </trkpt>
      <trkpt lat="49.61782" lon="5.5533">
        <ele>379.17620849609</ele>
        <time>2021-01-08T21:04:44.490Z</time>
      </trkpt>
      <trkpt lat="49.61791" lon="5.55538">
        <ele>377.63061523438</ele>
        <time>2021-01-08T21:04:45.940Z</time>
      </trkpt>
      <trkpt lat="49.61799" lon="5.5559">
        <ele>377.56314086914</ele>
        <time>2021-01-08T21:04:47.397Z</time>
      </trkpt>
      <trkpt lat="49.61833" lon="5.55688">
        <ele>380.66677856445</ele>
        <time>2021-01-08T21:04:48.868Z</time>
      </trkpt>
      <trkpt lat="49.61838" lon="5.55698">
        <ele>381.05291748047</ele>
        <time>2021-01-08T21:04:50.341Z</time>
      </trkpt>
      <trkpt lat="49.61882" lon="5.55822">
        <ele>382.79611206055</ele>
        <time>2021-01-08T21:04:51.832Z</time>
      </trkpt>
      <trkpt lat="49.61888" lon="5.55893">
        <ele>385.42456054688</ele>
        <time>2021-01-08T21:04:53.333Z</time>
      </trkpt>
      <trkpt lat="49.61914" lon="5.56034">
        <ele>387.78283691406</ele>
        <time>2021-01-08T21:04:54.853Z</time>
      </trkpt>
      <trkpt lat="49.61918" lon="5.56063">
        <ele>387.87460327148</ele>
        <time>2021-01-08T21:04:56.376Z</time>
      </trkpt>
      <trkpt lat="49.6192" lon="5.56071">
        <ele>387.98547363281</ele>
        <time>2021-01-08T21:04:57.901Z</time>
      </trkpt>
      <trkpt lat="49.61926" lon="5.56287">
        <ele>386.14852905273</ele>
        <time>2021-01-08T21:04:59.454Z</time>
      </trkpt>
      <trkpt lat="49.61923" lon="5.56359">
        <ele>385.11499023438</ele>
        <time>2021-01-08T21:05:01.016Z</time>
      </trkpt>
      <trkpt lat="49.61923" lon="5.56359">
        <ele>385.11499023438</ele>
        <time>2021-01-08T21:05:02.578Z</time>
      </trkpt>
      <trkpt lat="49.6192" lon="5.56437">
        <ele>382.37200927734</ele>
        <time>2021-01-08T21:05:04.150Z</time>
      </trkpt>
      <trkpt lat="49.61923" lon="5.5654">
        <ele>383.65463256836</ele>
        <time>2021-01-08T21:05:05.736Z</time>
      </trkpt>
      <trkpt lat="49.61916" lon="5.56618">
        <ele>385.58023071289</ele>
        <time>2021-01-08T21:05:07.332Z</time>
      </trkpt>
      <trkpt lat="49.61885" lon="5.56776">
        <ele>383.48059082031</ele>
        <time>2021-01-08T21:05:08.949Z</time>
      </trkpt>
      <trkpt lat="49.61856" lon="5.56857">
        <ele>383.56240844727</ele>
        <time>2021-01-08T21:05:10.578Z</time>
      </trkpt>
      <trkpt lat="49.6184" lon="5.56904">
        <ele>383.29403686523</ele>
        <time>2021-01-08T21:05:12.214Z</time>
      </trkpt>
      <trkpt lat="49.61759" lon="5.57044">
        <ele>380.6403503418</ele>
        <time>2021-01-08T21:05:13.875Z</time>
      </trkpt>
      <trkpt lat="49.6171" lon="5.5716">
        <ele>377.89334106445</ele>
        <time>2021-01-08T21:05:15.554Z</time>
      </trkpt>
      <trkpt lat="49.61708" lon="5.57167">
        <ele>377.73828125</ele>
        <time>2021-01-08T21:05:17.234Z</time>
      </trkpt>
      <trkpt lat="49.61688" lon="5.5723">
        <ele>372.42822265625</ele>
        <time>2021-01-08T21:05:18.923Z</time>
      </trkpt>
      <trkpt lat="49.61685" lon="5.57226">
        <ele>372.4680480957</ele>
        <time>2021-01-08T21:05:20.613Z</time>
      </trkpt>
      <trkpt lat="49.61685" lon="5.57226">
        <ele>372.46835327148</ele>
        <time>2021-01-08T21:05:22.303Z</time>
      </trkpt>
      <trkpt lat="49.61632" lon="5.5715">
        <ele>370.25106811523</ele>
        <time>2021-01-08T21:05:24.007Z</time>
      </trkpt>
      <trkpt lat="49.61568" lon="5.57129">
        <ele>366.73379516602</ele>
        <time>2021-01-08T21:05:25.724Z</time>
      </trkpt>
      <trkpt lat="49.61432" lon="5.5705">
        <ele>364</ele>
        <time>2021-01-08T21:05:27.470Z</time>
      </trkpt>
      <trkpt lat="49.61188" lon="5.56809">
        <ele>357.42944335938</ele>
        <time>2021-01-08T21:05:29.274Z</time>
      </trkpt>
      <trkpt lat="49.61066" lon="5.56739">
        <ele>351.11407470703</ele>
        <time>2021-01-08T21:05:31.104Z</time>
      </trkpt>
      <trkpt lat="49.61021" lon="5.56738">
        <ele>344.62707519531</ele>
        <time>2021-01-08T21:05:32.943Z</time>
      </trkpt>
      <trkpt lat="49.60989" lon="5.56746">
        <ele>339.78656005859</ele>
        <time>2021-01-08T21:05:34.789Z</time>
      </trkpt>
      <trkpt lat="49.60921" lon="5.56763">
        <ele>335.638671875</ele>
        <time>2021-01-08T21:05:36.649Z</time>
      </trkpt>
      <trkpt lat="49.60909" lon="5.56767">
        <ele>336.9020690918</ele>
        <time>2021-01-08T21:05:38.511Z</time>
      </trkpt>
      <trkpt lat="49.60753" lon="5.56765">
        <ele>344</ele>
        <time>2021-01-08T21:05:40.404Z</time>
      </trkpt>
      <trkpt lat="49.60735" lon="5.56774">
        <ele>344</ele>
        <time>2021-01-08T21:05:42.301Z</time>
      </trkpt>
      <trkpt lat="49.60682" lon="5.56848">
        <ele>343.00628662109</ele>
        <time>2021-01-08T21:05:44.212Z</time>
      </trkpt>
      <trkpt lat="49.60654" lon="5.56876">
        <ele>343.43692016602</ele>
        <time>2021-01-08T21:05:46.130Z</time>
      </trkpt>
      <trkpt lat="49.6053" lon="5.56906">
        <ele>330.1579284668</ele>
        <time>2021-01-08T21:05:48.073Z</time>
      </trkpt>
      <trkpt lat="49.60466" lon="5.5689">
        <ele>329.65850830078</ele>
        <time>2021-01-08T21:05:50.029Z</time>
      </trkpt>
      <trkpt lat="49.60407" lon="5.56854">
        <ele>332.38598632812</ele>
        <time>2021-01-08T21:05:51.998Z</time>
      </trkpt>
      <trkpt lat="49.60353" lon="5.56839">
        <ele>331.7532043457</ele>
        <time>2021-01-08T21:05:53.978Z</time>
      </trkpt>
      <trkpt lat="49.6023" lon="5.56882">
        <ele>327.16030883789</ele>
        <time>2021-01-08T21:05:55.983Z</time>
      </trkpt>
      <trkpt lat="49.60164" lon="5.56867">
        <ele>319.23654174805</ele>
        <time>2021-01-08T21:05:58.002Z</time>
      </trkpt>
      <trkpt lat="49.60164" lon="5.56867">
        <ele>319.23895263672</ele>
        <time>2021-01-08T21:06:00.021Z</time>
      </trkpt>
      <trkpt lat="49.60157" lon="5.56865">
        <ele>318.13967895508</ele>
        <time>2021-01-08T21:06:02.041Z</time>
      </trkpt>
      <trkpt lat="49.60152" lon="5.56864">
        <ele>317.52066040039</ele>
        <time>2021-01-08T21:06:04.062Z</time>
      </trkpt>
      <trkpt lat="49.6006" lon="5.56849">
        <ele>309.11874389648</ele>
        <time>2021-01-08T21:06:06.102Z</time>
      </trkpt>
      <trkpt lat="49.59948" lon="5.56857">
        <ele>311.27346801758</ele>
        <time>2021-01-08T21:06:08.164Z</time>
      </trkpt>
      <trkpt lat="49.5986" lon="5.56808">
        <ele>304.72219848633</ele>
        <time>2021-01-08T21:06:10.245Z</time>
      </trkpt>
      <trkpt lat="49.59709" lon="5.56755">
        <ele>304.2360534668</ele>
        <time>2021-01-08T21:06:12.357Z</time>
      </trkpt>
      <trkpt lat="49.59686" lon="5.56741">
        <ele>305.01651000977</ele>
        <time>2021-01-08T21:06:14.474Z</time>
      </trkpt>
      <trkpt lat="49.59634" lon="5.56687">
        <ele>302.39938354492</ele>
        <time>2021-01-08T21:06:16.603Z</time>
      </trkpt>
      <trkpt lat="49.59571" lon="5.56597">
        <ele>298.54782104492</ele>
        <time>2021-01-08T21:06:18.749Z</time>
      </trkpt>
      <trkpt lat="49.59571" lon="5.56597">
        <ele>298.5481262207</ele>
        <time>2021-01-08T21:06:20.895Z</time>
      </trkpt>
      <trkpt lat="49.59548" lon="5.56556">
        <ele>299.35900878906</ele>
        <time>2021-01-08T21:06:23.048Z</time>
      </trkpt>
      <trkpt lat="49.59525" lon="5.56536">
        <ele>300.41638183594</ele>
        <time>2021-01-08T21:06:25.207Z</time>
      </trkpt>
      <trkpt lat="49.59501" lon="5.56529">
        <ele>302.16714477539</ele>
        <time>2021-01-08T21:06:27.371Z</time>
      </trkpt>
      <trkpt lat="49.59459" lon="5.56479">
        <ele>305.12716674805</ele>
        <time>2021-01-08T21:06:29.545Z</time>
      </trkpt>
      <trkpt lat="49.59448" lon="5.56455">
        <ele>306.57110595703</ele>
        <time>2021-01-08T21:06:31.723Z</time>
      </trkpt>
      <trkpt lat="49.59421" lon="5.56425">
        <ele>307.75225830078</ele>
        <time>2021-01-08T21:06:33.908Z</time>
      </trkpt>
      <trkpt lat="49.59394" lon="5.56406">
        <ele>304.32287597656</ele>
        <time>2021-01-08T21:06:36.099Z</time>
      </trkpt>
      <trkpt lat="49.59369" lon="5.56401">
        <ele>300.60342407227</ele>
        <time>2021-01-08T21:06:38.295Z</time>
      </trkpt>
      <trkpt lat="49.59373" lon="5.56395">
        <ele>301.38345336914</ele>
        <time>2021-01-08T21:06:40.492Z</time>
      </trkpt>
      <trkpt lat="49.59373" lon="5.56395">
        <ele>301.38464355469</ele>
        <time>2021-01-08T21:06:42.689Z</time>
      </trkpt>
      <trkpt lat="49.59447" lon="5.56303">
        <ele>289.36010742188</ele>
        <time>2021-01-08T21:06:44.905Z</time>
      </trkpt>
      <trkpt lat="49.59479" lon="5.56247">
        <ele>281.57507324219</ele>
        <time>2021-01-08T21:06:47.130Z</time>
      </trkpt>
      <trkpt lat="49.59522" lon="5.56159">
        <ele>276.20056152344</ele>
        <time>2021-01-08T21:06:49.370Z</time>
      </trkpt>
      <trkpt lat="49.5954" lon="5.56108">
        <ele>271.15408325195</ele>
        <time>2021-01-08T21:06:51.617Z</time>
      </trkpt>
      <trkpt lat="49.59557" lon="5.55943">
        <ele>247.69393920898</ele>
        <time>2021-01-08T21:06:53.886Z</time>
      </trkpt>
      <trkpt lat="49.59499" lon="5.55931">
        <ele>248.91160583496</ele>
        <time>2021-01-08T21:06:56.167Z</time>
      </trkpt>
      <trkpt lat="49.59475" lon="5.55914">
        <ele>250.24069213867</ele>
        <time>2021-01-08T21:06:58.453Z</time>
      </trkpt>
      <trkpt lat="49.59371" lon="5.55745">
        <ele>247.94639587402</ele>
        <time>2021-01-08T21:07:00.769Z</time>
      </trkpt>
      <trkpt lat="49.59313" lon="5.55664">
        <ele>241.62530517578</ele>
        <time>2021-01-08T21:07:03.101Z</time>
      </trkpt>
      <trkpt lat="49.59257" lon="5.55606">
        <ele>241.02935791016</ele>
        <time>2021-01-08T21:07:05.447Z</time>
      </trkpt>
      <trkpt lat="49.59176" lon="5.55542">
        <ele>238.13310241699</ele>
        <time>2021-01-08T21:07:07.811Z</time>
      </trkpt>
      <trkpt lat="49.59065" lon="5.55483">
        <ele>241.33790588379</ele>
        <time>2021-01-08T21:07:10.198Z</time>
      </trkpt>
      <trkpt lat="49.59091" lon="5.55382">
        <ele>234.90397644043</ele>
        <time>2021-01-08T21:07:12.599Z</time>
      </trkpt>
      <trkpt lat="49.59034" lon="5.55347">
        <ele>234.11209106445</ele>
        <time>2021-01-08T21:07:15.013Z</time>
      </trkpt>
      <trkpt lat="49.59" lon="5.55326">
        <ele>231.99197387695</ele>
        <time>2021-01-08T21:07:17.434Z</time>
      </trkpt>
      <trkpt lat="49.5894" lon="5.55334">
        <ele>231.83470153809</ele>
        <time>2021-01-08T21:07:19.867Z</time>
      </trkpt>
      <trkpt lat="49.58901" lon="5.55341">
        <ele>229.08485412598</ele>
        <time>2021-01-08T21:07:22.308Z</time>
      </trkpt>
      <trkpt lat="49.5892" lon="5.55316">
        <ele>233.72674560547</ele>
        <time>2021-01-08T21:07:24.754Z</time>
      </trkpt>
      <trkpt lat="49.58937" lon="5.55295">
        <ele>236.26902770996</ele>
        <time>2021-01-08T21:07:27.204Z</time>
      </trkpt>
      <trkpt lat="49.58978" lon="5.55242">
        <ele>236.81034851074</ele>
        <time>2021-01-08T21:07:29.665Z</time>
      </trkpt>
      <trkpt lat="49.58978" lon="5.55242">
        <ele>236.8112487793</ele>
        <time>2021-01-08T21:07:32.126Z</time>
      </trkpt>
      <trkpt lat="49.5899" lon="5.55227">
        <ele>237.43780517578</ele>
        <time>2021-01-08T21:07:34.590Z</time>
      </trkpt>
      <trkpt lat="49.5899" lon="5.55227">
        <ele>237.4375</ele>
        <time>2021-01-08T21:07:37.054Z</time>
      </trkpt>
      <trkpt lat="49.59097" lon="5.54962">
        <ele>245.53958129883</ele>
        <time>2021-01-08T21:07:39.559Z</time>
      </trkpt>
      <trkpt lat="49.59097" lon="5.54962">
        <ele>245.54078674316</ele>
        <time>2021-01-08T21:07:42.064Z</time>
      </trkpt>
      <trkpt lat="49.5913" lon="5.54893">
        <ele>249.27267456055</ele>
        <time>2021-01-08T21:07:44.580Z</time>
      </trkpt>
      <trkpt lat="49.59185" lon="5.54814">
        <ele>250.80206298828</ele>
        <time>2021-01-08T21:07:47.111Z</time>
      </trkpt>
      <trkpt lat="49.59279" lon="5.54721">
        <ele>254.94941711426</ele>
        <time>2021-01-08T21:07:49.664Z</time>
      </trkpt>
      <trkpt lat="49.5941" lon="5.54596">
        <ele>262.48510742188</ele>
        <time>2021-01-08T21:07:52.248Z</time>
      </trkpt>
      <trkpt lat="49.59439" lon="5.54541">
        <ele>262.32952880859</ele>
        <time>2021-01-08T21:07:54.841Z</time>
      </trkpt>
      <trkpt lat="49.59456" lon="5.54436">
        <ele>263.00238037109</ele>
        <time>2021-01-08T21:07:57.448Z</time>
      </trkpt>
      <trkpt lat="49.59468" lon="5.54359">
        <ele>264.13363647461</ele>
        <time>2021-01-08T21:08:00.066Z</time>
      </trkpt>
      <trkpt lat="49.59485" lon="5.54296">
        <ele>266.21337890625</ele>
        <time>2021-01-08T21:08:02.693Z</time>
      </trkpt>
      <trkpt lat="49.59483" lon="5.54283">
        <ele>266.2607421875</ele>
        <time>2021-01-08T21:08:05.321Z</time>
      </trkpt>
      <trkpt lat="49.59483" lon="5.54283">
        <ele>266.26043701172</ele>
        <time>2021-01-08T21:08:07.949Z</time>
      </trkpt>
      <trkpt lat="49.59473" lon="5.5423">
        <ele>267.50924682617</ele>
        <time>2021-01-08T21:08:10.585Z</time>
      </trkpt>
      <trkpt lat="49.59424" lon="5.54164">
        <ele>274.51434326172</ele>
        <time>2021-01-08T21:08:13.234Z</time>
      </trkpt>
      <trkpt lat="49.59399" lon="5.54071">
        <ele>275.25686645508</ele>
        <time>2021-01-08T21:08:15.896Z</time>
      </trkpt>
      <trkpt lat="49.59371" lon="5.53874">
        <ele>284.30432128906</ele>
        <time>2021-01-08T21:08:18.584Z</time>
      </trkpt>
      <trkpt lat="49.5938" lon="5.53769">
        <ele>288.20074462891</ele>
        <time>2021-01-08T21:08:21.286Z</time>
      </trkpt>
      <trkpt lat="49.59411" lon="5.53578">
        <ele>293.5583190918</ele>
        <time>2021-01-08T21:08:24.013Z</time>
      </trkpt>
      <trkpt lat="49.59416" lon="5.53467">
        <ele>299.20852661133</ele>
        <time>2021-01-08T21:08:26.755Z</time>
      </trkpt>
      <trkpt lat="49.59431" lon="5.53365">
        <ele>302.29742431641</ele>
        <time>2021-01-08T21:08:29.510Z</time>
      </trkpt>
    </trkseg>
  </trk>
</gpx>